sensor_id;sensor_type;location;lat;lon;timestamp;pressure;altitude;pressure_sealevel;temperature;humidity
20424;BME280;10371;49.042;8.002;2023-01-27T00:00:12;100278.19;;;0.46;100.00
20424;BME280;10371;49.042;8.002;2023-01-27T00:01:16;100281.56;;;0.47;100.00
20424;BME280;10371;49.042;8.002;2023-01-27T00:02:16;100281.56;;;0.47;100.00
20424;BME280;10371;49.042;8.002;2023-01-27T00:03:17;100276.44;;;0.47;100.00
20424;BME280;10371;49.042;8.002;2023-01-27T00:04:17;100271.50;;;0.42;100.00
20424;BME280;10371;49.042;8.002;2023-01-27T00:05:18;100278.03;;;0.51;100.00
20424;BME280;10371;49.042;8.002;2023-01-27T00:06:18;100276.44;;;0.47;100.00
20424;BME280;10371;49.042;8.002;2023-01-27T00:07:18;100279.94;;;0.44;100.00
20424;BME280;10371;49.042;8.002;2023-01-27T00:08:19;100283.34;;;0.44;100.00
20424;BME280;10371;49.042;8.002;2023-01-27T00:09:19;100276.66;;;0.40;100.00
20424;BME280;10371;49.042;8.002;2023-01-27T00:10:20;100276.00;;;0.34;100.00
20424;BME280;10371;49.042;8.002;2023-01-27T00:11:20;100271.06;;;0.28;100.00
20424;BME280;10371;49.042;8.002;2023-01-27T00:12:39;100273.06;;;0.18;100.00
20424;BME280;10371;49.042;8.002;2023-01-27T00:13:58;100273.97;;;0.17;100.00
20424;BME280;10371;49.042;8.002;2023-01-27T00:14:58;100278.91;;;0.23;100.00
20424;BME280;10371;49.042;8.002;2023-01-27T00:15:58;100278.81;;;0.26;100.00
20424;BME280;10371;49.042;8.002;2023-01-27T00:17:00;100270.41;;;0.21;100.00
20424;BME280;10371;49.042;8.002;2023-01-27T00:18:00;100271.25;;;0.21;100.00
20424;BME280;10371;49.042;8.002;2023-01-27T00:19:00;100270.41;;;0.21;100.00
20424;BME280;10371;49.042;8.002;2023-01-27T00:20:01;100268.84;;;0.17;100.00
20424;BME280;10371;49.042;8.002;2023-01-27T00:21:01;100272.19;;;0.19;100.00
20424;BME280;10371;49.042;8.002;2023-01-27T00:22:20;100266.94;;;0.24;100.00
20424;BME280;10371;49.042;8.002;2023-01-27T00:23:39;100266.97;;;0.22;100.00
20424;BME280;10371;49.042;8.002;2023-01-27T00:24:58;100263.63;;;0.20;100.00
20424;BME280;10371;49.042;8.002;2023-01-27T00:25:58;100266.13;;;0.21;100.00
20424;BME280;10371;49.042;8.002;2023-01-27T00:27:04;100266.00;;;0.26;100.00
20424;BME280;10371;49.042;8.002;2023-01-27T00:28:07;100263.38;;;0.28;100.00
20424;BME280;10371;49.042;8.002;2023-01-27T00:29:08;100263.34;;;0.29;100.00
20424;BME280;10371;49.042;8.002;2023-01-27T00:30:10;100254.66;;;0.33;100.00
20424;BME280;10371;49.042;8.002;2023-01-27T00:31:13;100249.47;;;0.36;100.00
20424;BME280;10371;49.042;8.002;2023-01-27T00:32:33;100252.69;;;0.41;100.00
20424;BME280;10371;49.042;8.002;2023-01-27T00:33:51;100240.75;;;0.42;100.00
20424;BME280;10371;49.042;8.002;2023-01-27T00:34:55;100249.88;;;0.51;100.00
20424;BME280;10371;49.042;8.002;2023-01-27T00:35:59;100248.88;;;0.55;100.00
20424;BME280;10371;49.042;8.002;2023-01-27T00:37:00;100249.69;;;0.55;100.00
20424;BME280;10371;49.042;8.002;2023-01-27T00:38:01;100252.38;;;0.52;100.00
20424;BME280;10371;49.042;8.002;2023-01-27T00:39:01;100249.88;;;0.51;100.00
20424;BME280;10371;49.042;8.002;2023-01-27T00:40:02;100245.72;;;0.47;100.00
20424;BME280;10371;49.042;8.002;2023-01-27T00:41:02;100249.28;;;0.42;100.00
20424;BME280;10371;49.042;8.002;2023-01-27T00:42:18;100245.09;;;0.40;100.00
20424;BME280;10371;49.042;8.002;2023-01-27T00:43:18;100245.81;;;0.43;100.00
20424;BME280;10371;49.042;8.002;2023-01-27T00:44:19;100250.03;;;0.44;100.00
20424;BME280;10371;49.042;8.002;2023-01-27T00:45:19;100245.88;;;0.42;100.00
20424;BME280;10371;49.042;8.002;2023-01-27T00:46:38;100244.06;;;0.46;100.00
20424;BME280;10371;49.042;8.002;2023-01-27T00:47:39;100250.84;;;0.47;100.00
20424;BME280;10371;49.042;8.002;2023-01-27T00:48:39;100245.59;;;0.50;100.00
20424;BME280;10371;49.042;8.002;2023-01-27T00:49:39;100245.50;;;0.53;100.00
20424;BME280;10371;49.042;8.002;2023-01-27T00:50:39;100238.75;;;0.50;100.00
20424;BME280;10371;49.042;8.002;2023-01-27T00:51:41;100245.78;;;0.45;100.00
20424;BME280;10371;49.042;8.002;2023-01-27T00:52:42;100236.50;;;0.41;100.00
20424;BME280;10371;49.042;8.002;2023-01-27T00:53:42;100236.56;;;0.39;100.00
20424;BME280;10371;49.042;8.002;2023-01-27T00:54:43;100247.88;;;0.32;100.00
20424;BME280;10371;49.042;8.002;2023-01-27T00:55:43;100246.16;;;0.33;100.00
20424;BME280;10371;49.042;8.002;2023-01-27T00:56:44;100246.16;;;0.33;100.00
20424;BME280;10371;49.042;8.002;2023-01-27T00:57:44;100254.00;;;0.28;100.00
20424;BME280;10371;49.042;8.002;2023-01-27T00:58:45;100247.25;;;0.26;100.00
20424;BME280;10371;49.042;8.002;2023-01-27T00:59:45;100258.44;;;0.21;100.00
20424;BME280;10371;49.042;8.002;2023-01-27T01:00:46;100252.47;;;0.22;100.00
20424;BME280;10371;49.042;8.002;2023-01-27T01:01:46;100245.56;;;0.25;100.00
20424;BME280;10371;49.042;8.002;2023-01-27T01:02:46;100254.66;;;0.33;100.00
20424;BME280;10371;49.042;8.002;2023-01-27T01:03:46;100250.66;;;0.25;100.00
20424;BME280;10371;49.042;8.002;2023-01-27T01:04:47;100249.94;;;0.21;100.00
20424;BME280;10371;49.042;8.002;2023-01-27T01:05:48;100252.41;;;0.24;100.00
20424;BME280;10371;49.042;8.002;2023-01-27T01:06:48;100250.13;;;0.15;100.00
20424;BME280;10371;49.042;8.002;2023-01-27T01:07:49;100248.63;;;0.08;100.00
20424;BME280;10371;49.042;8.002;2023-01-27T01:08:49;100250.69;;;-0.04;100.00
20424;BME280;10371;49.042;8.002;2023-01-27T01:09:51;100248.94;;;-0.02;100.00
20424;BME280;10371;49.042;8.002;2023-01-27T01:10:51;100250.69;;;-0.04;100.00
20424;BME280;10371;49.042;8.002;2023-01-27T01:11:52;100249.84;;;-0.04;100.00
20424;BME280;10371;49.042;8.002;2023-01-27T01:12:52;100252.38;;;-0.03;100.00
20424;BME280;10371;49.042;8.002;2023-01-27T01:13:52;100252.44;;;-0.06;100.00
20424;BME280;10371;49.042;8.002;2023-01-27T01:14:52;100250.91;;;-0.11;100.00
20424;BME280;10371;49.042;8.002;2023-01-27T01:15:53;100249.16;;;-0.09;100.00
20424;BME280;10371;49.042;8.002;2023-01-27T01:16:54;100260.19;;;-0.07;100.00
20424;BME280;10371;49.042;8.002;2023-01-27T01:17:55;100259.16;;;-0.02;100.00
20424;BME280;10371;49.042;8.002;2023-01-27T01:18:56;100254.88;;;-0.01;100.00
20424;BME280;10371;49.042;8.002;2023-01-27T01:19:56;100260.22;;;-0.09;100.00
20424;BME280;10371;49.042;8.002;2023-01-27T01:20:57;100253.47;;;-0.11;100.00
20424;BME280;10371;49.042;8.002;2023-01-27T01:21:57;100250.03;;;-0.10;100.00
20424;BME280;10371;49.042;8.002;2023-01-27T01:22:57;100258.44;;;-0.05;100.00
20424;BME280;10371;49.042;8.002;2023-01-27T01:23:58;100255.72;;;-0.01;100.00
20424;BME280;10371;49.042;8.002;2023-01-27T01:24:58;100259.88;;;0.04;100.00
20424;BME280;10371;49.042;8.002;2023-01-27T01:25:58;100266.53;;;0.09;100.00
20424;BME280;10371;49.042;8.002;2023-01-27T01:26:59;100257.16;;;0.08;100.00
20424;BME280;10371;49.042;8.002;2023-01-27T01:28:00;100253.84;;;0.05;100.00
20424;BME280;10371;49.042;8.002;2023-01-27T01:29:00;100259.06;;;0.02;100.00
20424;BME280;10371;49.042;8.002;2023-01-27T01:30:01;100257.44;;;-0.01;100.00
20424;BME280;10371;49.042;8.002;2023-01-27T01:31:09;100255.81;;;-0.04;100.00
20424;BME280;10371;49.042;8.002;2023-01-27T01:32:09;100255.78;;;-0.02;100.00
20424;BME280;10371;49.042;8.002;2023-01-27T01:33:10;100260.91;;;-0.04;100.00
20424;BME280;10371;49.042;8.002;2023-01-27T01:34:10;100247.47;;;-0.10;100.00
20424;BME280;10371;49.042;8.002;2023-01-27T01:35:10;100255.06;;;-0.07;100.00
20424;BME280;10371;49.042;8.002;2023-01-27T01:36:13;100254.97;;;-0.04;100.00
20424;BME280;10371;49.042;8.002;2023-01-27T01:37:14;100247.25;;;-0.03;100.00
20424;BME280;10371;49.042;8.002;2023-01-27T01:38:15;100251.38;;;0.02;100.00
20424;BME280;10371;49.042;8.002;2023-01-27T01:39:15;100249.75;;;-0.01;100.00
20424;BME280;10371;49.042;8.002;2023-01-27T01:40:15;100254.03;;;-0.02;100.00
20424;BME280;10371;49.042;8.002;2023-01-27T01:41:19;100255.72;;;-0.01;100.00
20424;BME280;10371;49.042;8.002;2023-01-27T01:42:19;100252.28;;;0.01;100.00
20424;BME280;10371;49.042;8.002;2023-01-27T01:43:20;100250.50;;;0.03;100.00
20424;BME280;10371;49.042;8.002;2023-01-27T01:44:27;100250.47;;;0.04;100.00
20424;BME280;10371;49.042;8.002;2023-01-27T01:45:49;100252.09;;;0.07;100.00
20424;BME280;10371;49.042;8.002;2023-01-27T01:46:50;100246.25;;;0.03;100.00
20424;BME280;10371;49.042;8.002;2023-01-27T01:47:50;100248.69;;;0.06;100.00
20424;BME280;10371;49.042;8.002;2023-01-27T01:48:53;100246.91;;;0.08;100.00
20424;BME280;10371;49.042;8.002;2023-01-27T01:49:55;100245.22;;;0.09;100.00
20424;BME280;10371;49.042;8.002;2023-01-27T01:50:59;100251.88;;;0.14;100.00
20424;BME280;10371;49.042;8.002;2023-01-27T01:52:05;100247.47;;;0.18;100.00
20424;BME280;10371;49.042;8.002;2023-01-27T01:53:08;100249.97;;;0.19;100.00
20424;BME280;10371;49.042;8.002;2023-01-27T01:54:20;100244.72;;;0.24;100.00
20424;BME280;10371;49.042;8.002;2023-01-27T01:55:23;100242.97;;;0.26;100.00
20424;BME280;10371;49.042;8.002;2023-01-27T01:56:27;100244.63;;;0.27;100.00
20424;BME280;10371;49.042;8.002;2023-01-27T01:57:32;100248.81;;;0.30;100.00
20424;BME280;10371;49.042;8.002;2023-01-27T01:58:37;100244.72;;;0.24;100.00
20424;BME280;10371;49.042;8.002;2023-01-27T01:59:43;100241.38;;;0.22;100.00
20424;BME280;10371;49.042;8.002;2023-01-27T02:00:46;100244.78;;;0.22;100.00
20424;BME280;10371;49.042;8.002;2023-01-27T02:01:46;100232.81;;;0.23;100.00
20424;BME280;10371;49.042;8.002;2023-01-27T02:02:48;100235.28;;;0.26;100.00
20424;BME280;10371;49.042;8.002;2023-01-27T02:03:52;100235.41;;;0.21;100.00
20424;BME280;10371;49.042;8.002;2023-01-27T02:04:59;100243.16;;;0.20;100.00
20424;BME280;10371;49.042;8.002;2023-01-27T02:06:01;100235.41;;;0.21;100.00
20424;BME280;10371;49.042;8.002;2023-01-27T02:07:12;100240.50;;;0.23;100.00
20424;BME280;10371;49.042;8.002;2023-01-27T02:08:26;100237.94;;;0.23;100.00
20424;BME280;10371;49.042;8.002;2023-01-27T02:09:28;100246.66;;;0.17;100.00
20424;BME280;10371;49.042;8.002;2023-01-27T02:10:28;100243.38;;;0.12;100.00
20424;BME280;10371;49.042;8.002;2023-01-27T02:11:29;100245.25;;;0.07;100.00
20424;BME280;10371;49.042;8.002;2023-01-27T02:12:29;100242.78;;;0.04;100.00
20424;BME280;10371;49.042;8.002;2023-01-27T02:13:29;100238.50;;;0.05;100.00
20424;BME280;10371;49.042;8.002;2023-01-27T02:14:30;100238.59;;;0.02;100.00
20424;BME280;10371;49.042;8.002;2023-01-27T02:15:30;100239.41;;;0.04;100.00
20424;BME280;10371;49.042;8.002;2023-01-27T02:16:31;100238.31;;;0.11;100.00
20424;BME280;10371;49.042;8.002;2023-01-27T02:17:32;100240.81;;;0.12;100.00
20424;BME280;10371;49.042;8.002;2023-01-27T02:18:32;100237.28;;;0.16;100.00
20424;BME280;10371;49.042;8.002;2023-01-27T02:20:46;100245.00;;;0.15;100.00
20424;BME280;10371;49.042;8.002;2023-01-27T02:21:49;100241.56;;;0.16;100.00
20424;BME280;10371;49.042;8.002;2023-01-27T02:24:35;100232.25;;;0.13;100.00
20424;BME280;10371;49.042;8.002;2023-01-27T02:26:55;100240.13;;;0.07;100.00
20424;BME280;10371;49.042;8.002;2023-01-27T02:27:56;100239.41;;;0.04;100.00
20424;BME280;10371;49.042;8.002;2023-01-27T02:28:59;100243.16;;;-0.08;100.00
20424;BME280;10371;49.042;8.002;2023-01-27T02:29:59;100239.84;;;-0.12;100.00
20424;BME280;10371;49.042;8.002;2023-01-27T02:31:00;100240.59;;;-0.08;100.00
20424;BME280;10371;49.042;8.002;2023-01-27T02:32:00;100230.28;;;-0.05;100.00
20424;BME280;10371;49.042;8.002;2023-01-27T02:33:00;100235.31;;;-0.04;100.00
20424;BME280;10371;49.042;8.002;2023-01-27T02:34:04;100229.25;;;0.01;100.00
20424;BME280;10371;49.042;8.002;2023-01-27T02:35:07;100225.84;;;0.00;100.00
20424;BME280;10371;49.042;8.002;2023-01-27T02:36:15;100231.81;;;0.01;100.00
20424;BME280;10371;49.042;8.002;2023-01-27T02:37:17;100215.09;;;-0.11;100.00
20424;BME280;10371;49.042;8.002;2023-01-27T02:38:18;100234.63;;;-0.09;100.00
20424;BME280;10371;49.042;8.002;2023-01-27T02:39:20;100227.84;;;-0.10;100.00
20424;BME280;10371;49.042;8.002;2023-01-27T02:40:22;100231.97;;;-0.06;100.00
20424;BME280;10371;49.042;8.002;2023-01-27T02:41:34;100229.50;;;-0.09;100.00
20424;BME280;10371;49.042;8.002;2023-01-27T02:42:36;100227.09;;;-0.13;100.00
20424;BME280;10371;49.042;8.002;2023-01-27T02:43:36;100226.19;;;-0.11;100.00
20424;BME280;10371;49.042;8.002;2023-01-27T02:44:36;100232.25;;;-0.15;100.00
20424;BME280;10371;49.042;8.002;2023-01-27T02:45:36;100233.94;;;-0.14;100.00
20424;BME280;10371;49.042;8.002;2023-01-27T02:46:37;100229.78;;;-0.18;100.00
20424;BME280;10371;49.042;8.002;2023-01-27T02:47:37;100227.25;;;-0.18;100.00
20424;BME280;10371;49.042;8.002;2023-01-27T02:48:38;100227.13;;;-0.15;100.00
20424;BME280;10371;49.042;8.002;2023-01-27T02:49:38;100236.53;;;-0.15;100.00
20424;BME280;10371;49.042;8.002;2023-01-27T02:50:38;100230.59;;;-0.16;100.00
20424;BME280;10371;49.042;8.002;2023-01-27T02:51:39;100226.31;;;-0.15;100.00
20424;BME280;10371;49.042;8.002;2023-01-27T02:52:39;100238.22;;;-0.14;100.00
20424;BME280;10371;49.042;8.002;2023-01-27T02:53:39;100239.94;;;-0.15;100.00
20424;BME280;10371;49.042;8.002;2023-01-27T02:54:40;100227.22;;;-0.16;100.00
20424;BME280;10371;49.042;8.002;2023-01-27T02:55:40;100227.09;;;-0.13;100.00
20424;BME280;10371;49.042;8.002;2023-01-27T02:56:40;100236.34;;;-0.09;100.00
20424;BME280;10371;49.042;8.002;2023-01-27T02:57:41;100233.94;;;-0.14;100.00
20424;BME280;10371;49.042;8.002;2023-01-27T02:58:41;100230.59;;;-0.16;100.00
20424;BME280;10371;49.042;8.002;2023-01-27T02:59:41;100232.25;;;-0.15;100.00
20424;BME280;10371;49.042;8.002;2023-01-27T03:00:42;100229.66;;;-0.13;100.00
20424;BME280;10371;49.042;8.002;2023-01-27T03:01:43;100232.25;;;-0.15;100.00
20424;BME280;10371;49.042;8.002;2023-01-27T03:02:43;100237.53;;;-0.19;100.00
20424;BME280;10371;49.042;8.002;2023-01-27T03:03:43;100237.66;;;-0.24;100.00
20424;BME280;10371;49.042;8.002;2023-01-27T03:04:46;100229.91;;;-0.23;100.00
20424;BME280;10371;49.042;8.002;2023-01-27T03:05:46;100230.91;;;-0.27;100.00
20424;BME280;10371;49.042;8.002;2023-01-27T03:06:47;100234.56;;;-0.35;100.00
20424;BME280;10371;49.042;8.002;2023-01-27T03:07:47;100237.97;;;-0.35;100.00
20424;BME280;10371;49.042;8.002;2023-01-27T03:08:47;100231.84;;;-0.29;100.00
20424;BME280;10371;49.042;8.002;2023-01-27T03:09:47;100235.28;;;-0.30;100.00
20424;BME280;10371;49.042;8.002;2023-01-27T03:10:52;100236.22;;;-0.33;100.00
20424;BME280;10371;49.042;8.002;2023-01-27T03:11:53;100235.22;;;-0.29;100.00
20424;BME280;10371;49.042;8.002;2023-01-27T03:13:11;100245.47;;;-0.29;100.00
20424;BME280;10371;49.042;8.002;2023-01-27T03:14:12;100231.75;;;-0.26;100.00
20424;BME280;10371;49.042;8.002;2023-01-27T03:15:12;100237.66;;;-0.24;100.00
20424;BME280;10371;49.042;8.002;2023-01-27T03:16:31;100236.00;;;-0.25;100.00
20424;BME280;10371;49.042;8.002;2023-01-27T03:17:50;100237.59;;;-0.23;100.00
20424;BME280;10371;49.042;8.002;2023-01-27T03:19:08;100233.38;;;-0.24;100.00
20424;BME280;10371;49.042;8.002;2023-01-27T03:20:09;100238.47;;;-0.22;100.00
20424;BME280;10371;49.042;8.002;2023-01-27T03:21:10;100241.03;;;-0.22;100.00
20424;BME280;10371;49.042;8.002;2023-01-27T03:22:10;100246.13;;;-0.22;100.00
20424;BME280;10371;49.042;8.002;2023-01-27T03:23:11;100243.47;;;-0.19;100.00
20424;BME280;10371;49.042;8.002;2023-01-27T03:24:12;100252.94;;;-0.23;100.00
20424;BME280;10371;49.042;8.002;2023-01-27T03:25:12;100246.25;;;-0.27;100.00
20424;BME280;10371;49.042;8.002;2023-01-27T03:26:12;100253.00;;;-0.24;100.00
20424;BME280;10371;49.042;8.002;2023-01-27T03:27:13;100242.78;;;-0.24;100.00
20424;BME280;10371;49.042;8.002;2023-01-27T03:28:14;100250.56;;;-0.29;100.00
20424;BME280;10371;49.042;8.002;2023-01-27T03:29:14;100244.75;;;-0.34;100.00
20424;BME280;10371;49.042;8.002;2023-01-27T03:30:33;100247.31;;;-0.34;100.00
20424;BME280;10371;49.042;8.002;2023-01-27T03:31:33;100245.56;;;-0.32;100.00
20424;BME280;10371;49.042;8.002;2023-01-27T03:32:34;100250.56;;;-0.29;100.00
20424;BME280;10371;49.042;8.002;2023-01-27T03:33:34;100244.59;;;-0.28;100.00
20424;BME280;10371;49.042;8.002;2023-01-27T03:34:34;100244.63;;;-0.29;100.00
20424;BME280;10371;49.042;8.002;2023-01-27T03:35:36;100246.38;;;-0.31;100.00
20424;BME280;10371;49.042;8.002;2023-01-27T03:36:47;100233.56;;;-0.30;100.00
20424;BME280;10371;49.042;8.002;2023-01-27T03:38:11;100232.72;;;-0.30;100.00
20424;BME280;10371;49.042;8.002;2023-01-27T03:39:30;100236.22;;;-0.33;100.00
20424;BME280;10371;49.042;8.002;2023-01-27T03:40:50;100243.91;;;-0.34;100.00
20424;BME280;10371;49.042;8.002;2023-01-27T03:42:09;100241.34;;;-0.34;100.00
20424;BME280;10371;49.042;8.002;2023-01-27T03:43:28;100244.81;;;-0.35;100.00
20424;BME280;10371;49.042;8.002;2023-01-27T03:44:46;100239.59;;;-0.32;100.00
20424;BME280;10371;49.042;8.002;2023-01-27T03:46:05;100244.75;;;-0.34;100.00
20424;BME280;10371;49.042;8.002;2023-01-27T03:47:18;100245.63;;;-0.35;100.00
20424;BME280;10371;49.042;8.002;2023-01-27T03:48:18;100240.44;;;-0.32;100.00
20424;BME280;10371;49.042;8.002;2023-01-27T03:49:20;100243.81;;;-0.31;100.00
20424;BME280;10371;49.042;8.002;2023-01-27T03:50:20;100243.06;;;-0.33;100.00
20424;BME280;10371;49.042;8.002;2023-01-27T03:51:36;100246.47;;;-0.34;100.00
20424;BME280;10371;49.042;8.002;2023-01-27T03:52:36;100246.47;;;-0.34;100.00
20424;BME280;10371;49.042;8.002;2023-01-27T03:53:37;100244.72;;;-0.32;100.00
20424;BME280;10371;49.042;8.002;2023-01-27T03:54:37;100245.63;;;-0.35;100.00
20424;BME280;10371;49.042;8.002;2023-01-27T03:55:38;100248.94;;;-0.31;100.00
20424;BME280;10371;49.042;8.002;2023-01-27T03:56:38;100244.72;;;-0.32;100.00
20424;BME280;10371;49.042;8.002;2023-01-27T03:57:38;100245.47;;;-0.29;100.00
20424;BME280;10371;49.042;8.002;2023-01-27T03:58:39;100241.28;;;-0.31;100.00
20424;BME280;10371;49.042;8.002;2023-01-27T03:59:40;100246.38;;;-0.31;100.00
20424;BME280;10371;49.042;8.002;2023-01-27T04:00:40;100248.06;;;-0.30;100.00
20424;BME280;10371;49.042;8.002;2023-01-27T04:01:40;100254.13;;;-0.33;100.00
20424;BME280;10371;49.042;8.002;2023-01-27T04:02:42;100248.16;;;-0.33;100.00
20424;BME280;10371;49.042;8.002;2023-01-27T04:04:01;100253.13;;;-0.29;100.00
20424;BME280;10371;49.042;8.002;2023-01-27T04:05:20;100251.34;;;-0.25;100.00
20424;BME280;10371;49.042;8.002;2023-01-27T04:06:40;100256.47;;;-0.25;100.00
20424;BME280;10371;49.042;8.002;2023-01-27T04:08:04;100253.03;;;-0.26;100.00
20424;BME280;10371;49.042;8.002;2023-01-27T04:09:05;100252.09;;;-0.21;100.00
20424;BME280;10371;49.042;8.002;2023-01-27T04:10:07;100255.44;;;-0.19;100.00
20424;BME280;10371;49.042;8.002;2023-01-27T04:11:07;100260.50;;;-0.18;100.00
20424;BME280;10371;49.042;8.002;2023-01-27T04:12:26;100262.16;;;-0.17;100.00
20424;BME280;10371;49.042;8.002;2023-01-27T04:13:26;100258.69;;;-0.14;100.00
20424;BME280;10371;49.042;8.002;2023-01-27T04:14:37;100259.59;;;-0.17;100.00
20424;BME280;10371;49.042;8.002;2023-01-27T04:15:38;100261.31;;;-0.16;100.00
20424;BME280;10371;49.042;8.002;2023-01-27T04:16:38;100255.28;;;-0.15;100.00
20424;BME280;10371;49.042;8.002;2023-01-27T04:17:39;100262.16;;;-0.17;100.00
20424;BME280;10371;49.042;8.002;2023-01-27T04:18:40;100257.94;;;-0.18;100.00
20424;BME280;10371;49.042;8.002;2023-01-27T04:19:41;100258.66;;;-0.13;100.00
20424;BME280;10371;49.042;8.002;2023-01-27T04:20:41;100261.16;;;-0.11;100.00
20424;BME280;10371;49.042;8.002;2023-01-27T04:21:41;100256.09;;;-0.13;100.00
20424;BME280;10371;49.042;8.002;2023-01-27T04:22:42;100262.84;;;-0.10;100.00
20424;BME280;10371;49.042;8.002;2023-01-27T04:23:42;100264.47;;;-0.08;100.00
20424;BME280;10371;49.042;8.002;2023-01-27T04:24:43;100258.53;;;-0.08;100.00
20424;BME280;10371;49.042;8.002;2023-01-27T04:25:43;100262.78;;;-0.09;100.00
20424;BME280;10371;49.042;8.002;2023-01-27T04:26:44;100262.75;;;-0.07;100.00
20424;BME280;10371;49.042;8.002;2023-01-27T04:27:45;100271.38;;;-0.11;100.00
20424;BME280;10371;49.042;8.002;2023-01-27T04:28:45;100266.13;;;-0.07;100.00
20424;BME280;10371;49.042;8.002;2023-01-27T04:29:46;100264.56;;;-0.11;100.00
20424;BME280;10371;49.042;8.002;2023-01-27T04:30:47;100261.84;;;-0.06;100.00
20424;BME280;10371;49.042;8.002;2023-01-27T04:31:48;100258.38;;;-0.04;100.00
20424;BME280;10371;49.042;8.002;2023-01-27T04:32:49;100261.72;;;-0.02;100.00
20424;BME280;10371;49.042;8.002;2023-01-27T04:33:49;100266.84;;;-0.02;100.00
20424;BME280;10371;49.042;8.002;2023-01-27T04:34:49;100263.44;;;-0.02;100.00
20424;BME280;10371;49.042;8.002;2023-01-27T04:35:50;100265.13;;;-0.01;100.00
20424;BME280;10371;49.042;8.002;2023-01-27T04:36:50;100262.63;;;-0.03;100.00
20424;BME280;10371;49.042;8.002;2023-01-27T04:37:51;100264.19;;;0.02;100.00
20424;BME280;10371;49.042;8.002;2023-01-27T04:38:52;100263.34;;;0.01;100.00
20424;BME280;10371;49.042;8.002;2023-01-27T04:39:52;100268.47;;;0.01;100.00
20424;BME280;10371;49.042;8.002;2023-01-27T04:40:53;100263.34;;;0.01;100.00
20424;BME280;10371;49.042;8.002;2023-01-27T04:41:54;100268.56;;;-0.02;100.00
20424;BME280;10371;49.042;8.002;2023-01-27T04:42:55;100269.53;;;-0.06;100.00
20424;BME280;10371;49.042;8.002;2023-01-27T04:43:55;100262.75;;;-0.07;100.00
20424;BME280;10371;49.042;8.002;2023-01-27T04:44:55;100263.56;;;-0.07;100.00
20424;BME280;10371;49.042;8.002;2023-01-27T04:45:56;100262.75;;;-0.07;100.00
20424;BME280;10371;49.042;8.002;2023-01-27T04:46:56;100255.91;;;-0.07;100.00
20424;BME280;10371;49.042;8.002;2023-01-27T04:47:56;100262.69;;;-0.06;100.00
20424;BME280;10371;49.042;8.002;2023-01-27T04:48:57;100260.22;;;-0.09;100.00
20424;BME280;10371;49.042;8.002;2023-01-27T04:49:57;100263.84;;;-0.16;100.00
20424;BME280;10371;49.042;8.002;2023-01-27T04:50:57;100259.44;;;-0.11;100.00
20424;BME280;10371;49.042;8.002;2023-01-27T04:51:57;100265.50;;;-0.13;100.00
20424;BME280;10371;49.042;8.002;2023-01-27T04:52:58;100265.59;;;-0.16;100.00
20424;BME280;10371;49.042;8.002;2023-01-27T04:53:58;100271.47;;;-0.14;100.00
20424;BME280;10371;49.042;8.002;2023-01-27T04:54:59;100257.75;;;-0.12;100.00
20424;BME280;10371;49.042;8.002;2023-01-27T04:56:01;100266.97;;;-0.06;100.00
20424;BME280;10371;49.042;8.002;2023-01-27T04:57:02;100261.94;;;-0.09;100.00
20424;BME280;10371;49.042;8.002;2023-01-27T04:58:03;100267.16;;;-0.12;100.00
20424;BME280;10371;49.042;8.002;2023-01-27T04:59:09;100263.69;;;-0.11;100.00
20424;BME280;10371;49.042;8.002;2023-01-27T05:00:11;100266.94;;;-0.05;100.00
20424;BME280;10371;49.042;8.002;2023-01-27T05:01:12;100265.19;;;-0.03;100.00
20424;BME280;10371;49.042;8.002;2023-01-27T05:02:12;100266.19;;;-0.08;100.00
20424;BME280;10371;49.042;8.002;2023-01-27T05:03:12;100271.25;;;-0.07;100.00
20424;BME280;10371;49.042;8.002;2023-01-27T05:04:13;100258.53;;;-0.08;100.00
20424;BME280;10371;49.042;8.002;2023-01-27T05:05:13;100270.34;;;-0.06;100.00
20424;BME280;10371;49.042;8.002;2023-01-27T05:06:14;100275.63;;;-0.10;100.00
20424;BME280;10371;49.042;8.002;2023-01-27T05:07:14;100267.03;;;-0.08;100.00
20424;BME280;10371;49.042;8.002;2023-01-27T05:08:14;100274.81;;;-0.11;100.00
20424;BME280;10371;49.042;8.002;2023-01-27T05:09:14;100273.19;;;-0.15;100.00
20424;BME280;10371;49.042;8.002;2023-01-27T05:10:15;100269.00;;;-0.17;100.00
20424;BME280;10371;49.042;8.002;2023-01-27T05:11:16;100274.03;;;-0.14;100.00
20424;BME280;10371;49.042;8.002;2023-01-27T05:12:17;100274.81;;;-0.11;100.00
20424;BME280;10371;49.042;8.002;2023-01-27T05:13:17;100269.59;;;-0.08;100.00
20424;BME280;10371;49.042;8.002;2023-01-27T05:14:17;100273.78;;;-0.05;100.00
20424;BME280;10371;49.042;8.002;2023-01-27T05:15:18;100278.03;;;-0.06;100.00
20424;BME280;10371;49.042;8.002;2023-01-27T05:16:21;100280.00;;;-0.14;100.00
20424;BME280;10371;49.042;8.002;2023-01-27T05:17:22;100279.25;;;-0.17;100.00
20424;BME280;10371;49.042;8.002;2023-01-27T05:18:22;100269.91;;;-0.18;100.00
20424;BME280;10371;49.042;8.002;2023-01-27T05:19:23;100273.19;;;-0.15;100.00
20424;BME280;10371;49.042;8.002;2023-01-27T05:20:23;100270.53;;;-0.12;100.00
20424;BME280;10371;49.042;8.002;2023-01-27T05:21:26;100267.06;;;-0.09;100.00
20424;BME280;10371;49.042;8.002;2023-01-27T05:22:29;100266.19;;;-0.08;100.00
20424;BME280;10371;49.042;8.002;2023-01-27T05:23:30;100275.53;;;-0.07;100.00
20424;BME280;10371;49.042;8.002;2023-01-27T05:24:36;100262.00;;;-0.11;100.00
20424;BME280;10371;49.042;8.002;2023-01-27T05:25:42;100268.75;;;-0.08;100.00
20424;BME280;10371;49.042;8.002;2023-01-27T05:26:42;100270.53;;;-0.12;100.00
20424;BME280;10371;49.042;8.002;2023-01-27T05:27:43;100278.38;;;-0.16;100.00
20424;BME280;10371;49.042;8.002;2023-01-27T05:28:46;100275.75;;;-0.15;100.00
20424;BME280;10371;49.042;8.002;2023-01-27T05:29:46;100277.50;;;-0.17;100.00